Time;durP1;ratioP1;P1;durP2;ratioP2;P2;SDS_P1;SDS_P2;PMS_P1;PMS_P2;Temp;Humidity;BMP_temperature;BMP_pressure;BME280_temperature;BME280_humidity;BME280_pressure;Samples;Min_cycle;Max_cycle;Signal;HPM_P1;HPM_P2
2023/03/27 00:00:26;;;;;;;5.80;2.70;;;;;;;5.83;73.82;98117.68;107657;1254;62042;-37
2023/03/27 00:02:56;;;;;;;3.30;2.30;;;;;;;5.79;73.83;98117.38;107639;1254;61485;-37
2023/03/27 00:05:28;;;;;;;4.10;2.80;;;;;;;5.77;73.86;98116.66;107602;1253;73428;-38
2023/03/27 00:07:56;;;;;;;4.40;2.60;;;;;;;5.75;73.62;98116.85;107614;1253;70017;-38
2023/03/27 00:10:25;;;;;;;3.60;2.40;;;;;;;5.72;73.69;98112.48;107633;1254;72410;-37
2023/03/27 00:12:57;;;;;;;3.80;2.10;;;;;;;5.77;73.67;98111.88;107675;1253;62342;-37
2023/03/27 00:15:26;;;;;;;5.40;2.90;;;;;;;5.83;73.62;98110.94;107769;1254;61506;-37
2023/03/27 00:17:57;;;;;;;5.00;2.60;;;;;;;5.86;73.57;98110.73;107629;1254;74984;-37
2023/03/27 00:20:29;;;;;;;4.70;2.60;;;;;;;5.81;73.51;98111.43;107703;1254;69464;-37
2023/03/27 00:23:01;;;;;;;3.10;2.40;;;;;;;5.76;73.37;98111.64;107785;1254;73781;-37
2023/03/27 00:25:30;;;;;;;3.40;2.00;;;;;;;5.68;73.41;98106.28;107669;1253;60792;-37
2023/03/27 00:28:07;;;;;;;3.70;2.30;;;;;;;5.59;73.52;98109.89;107670;1253;61511;-37
2023/03/27 00:30:40;;;;;;;3.40;2.30;;;;;;;5.55;73.72;98109.35;107514;1254;74703;-38
2023/03/27 00:33:10;;;;;;;5.10;2.40;;;;;;;5.51;73.80;98110.90;107757;1254;69721;-38
2023/03/27 00:35:43;;;;;;;3.50;2.50;;;;;;;5.45;74.22;98114.15;107508;1254;73912;-38
2023/03/27 00:38:12;;;;;;;3.90;2.40;;;;;;;5.37;74.43;98111.85;107523;1254;60415;-38
2023/03/27 00:40:45;;;;;;;4.40;2.70;;;;;;;5.30;74.63;98113.41;107742;1254;60461;-38
2023/03/27 00:43:32;;;;;;;3.50;2.30;;;;;;;5.26;74.92;98106.48;107716;1252;75298;-38
2023/03/27 00:46:06;;;;;;;4.70;2.40;;;;;;;5.32;74.94;98107.98;107685;1254;69990;-38
2023/03/27 00:48:35;;;;;;;3.50;2.40;;;;;;;5.34;74.84;98108.23;107560;1252;73488;-38
2023/03/27 00:51:04;;;;;;;4.50;2.70;;;;;;;5.30;74.98;98105.66;107736;1253;61237;-36
2023/03/27 00:53:33;;;;;;;4.50;2.70;;;;;;;5.26;75.09;98111.33;107697;1252;61417;-36
2023/03/27 00:56:03;;;;;;;5.00;2.70;;;;;;;5.24;75.22;98109.83;107675;1254;75152;-36
2023/03/27 00:58:33;;;;;;;;;;;;;;;5.22;75.26;98111.48;107676;1253;69871;-36
2023/03/27 01:01:01;;;;;;;4.50;2.80;;;;;;;5.23;75.32;98108.27;107569;1259;73923;-37
2023/03/27 01:03:31;;;;;;;;;;;;;;;5.31;75.36;98112.81;107540;1254;61684;-36
2023/03/27 01:06:01;;;;;;;2.90;2.10;;;;;;;5.30;75.26;98111.19;107631;1253;60146;-37
2023/03/27 01:08:32;;;;;;;3.70;2.40;;;;;;;5.25;75.38;98112.39;107628;1254;73853;-37
2023/03/27 01:11:07;;;;;;;3.70;2.30;;;;;;;5.27;75.45;98112.19;107619;1253;70024;-36
2023/03/27 01:13:38;;;;;;;2.90;2.30;;;;;;;5.26;75.17;98108.58;107585;1253;71940;-37
2023/03/27 01:16:44;;;;;;;3.90;2.50;;;;;;;5.24;75.04;98105.38;107666;1252;62431;-37
2023/03/27 01:19:28;;;;;;;3.90;2.30;;;;;;;5.31;74.88;98103.15;107673;1253;60302;-37
2023/03/27 01:22:15;;;;;;;3.70;2.40;;;;;;;5.36;74.81;98108.52;107638;1254;74959;-37
2023/03/27 01:25:03;;;;;;;4.50;3.00;;;;;;;5.38;74.67;98107.88;107412;1252;69949;-37
2023/03/27 01:27:57;;;;;;;6.30;3.60;;;;;;;5.41;74.65;98109.31;107396;1253;73991;-37
2023/03/27 01:30:33;;;;;;;4.90;3.40;;;;;;;5.45;74.35;98106.48;107650;1254;61220;-37
2023/03/27 01:33:20;;;;;;;4.40;3.30;;;;;;;5.41;74.08;98108.77;107681;1253;62130;-37
2023/03/27 01:35:58;;;;;;;7.10;3.10;;;;;;;5.35;74.03;98105.66;107525;1254;74689;-37
2023/03/27 01:38:43;;;;;;;4.20;2.70;;;;;;;5.28;74.02;98104.39;107475;1254;69543;-38
2023/03/27 01:41:18;;;;;;;5.10;2.80;;;;;;;5.33;73.98;98107.23;107588;1257;73578;-37
2023/03/27 01:43:57;;;;;;;5.50;2.70;;;;;;;5.36;74.12;98106.14;107467;1254;61257;-37
2023/03/27 01:46:40;;;;;;;6.10;3.10;;;;;;;5.36;74.09;98104.02;107553;1254;61484;-37
2023/03/27 01:49:14;;;;;;;5.00;3.00;;;;;;;5.37;74.03;98101.94;107610;1254;74800;-37
2023/03/27 01:52:03;;;;;;;3.90;2.80;;;;;;;5.34;73.97;98093.61;107521;1254;69995;-37
2023/03/27 01:54:34;;;;;;;4.90;2.60;;;;;;;5.43;73.72;98101.13;106852;1254;1003054;-37
2023/03/27 01:57:21;;;;;;;3.70;2.70;;;;;;;5.44;73.26;98098.86;107377;1254;59419;-37
2023/03/27 02:00:16;;;;;;;3.50;2.40;;;;;;;5.50;72.93;98094.13;107558;1254;60310;-37
2023/03/27 02:03:25;;;;;;;2.90;2.20;;;;;;;5.62;72.14;98092.83;107575;1254;75051;-37
2023/03/27 02:06:01;;;;;;;3.40;2.40;;;;;;;5.71;71.26;98097.96;107579;1254;69891;-37
2023/03/27 02:08:41;;;;;;;4.40;2.50;;;;;;;5.73;70.82;98100.75;105993;1254;1003494;-37
2023/03/27 02:11:20;;;;;;;4.50;2.60;;;;;;;5.74;70.29;98100.70;107598;1254;61223;-37
2023/03/27 02:13:51;;;;;;;3.90;2.30;;;;;;;5.74;70.26;98101.84;107586;1254;60425;-37
2023/03/27 02:16:25;;;;;;;3.10;2.30;;;;;;;5.74;69.84;98104.45;107523;1253;75117;-37
2023/03/27 02:19:07;;;;;;;3.80;2.50;;;;;;;5.73;69.43;98106.11;103042;1253;1003616;-38
2023/03/27 02:21:36;;;;;;;3.70;2.40;;;;;;;5.65;69.08;98106.54;107488;1254;72958;-37
2023/03/27 02:24:05;;;;;;;2.10;1.90;;;;;;;5.53;69.16;98106.78;107398;1254;60633;-37
2023/03/27 02:26:34;;;;;;;5.70;2.40;;;;;;;5.41;69.27;98113.85;107582;1253;61111;-37
2023/03/27 02:29:53;;;;;;;3.70;2.50;;;;;;;5.25;69.16;98115.60;107579;1257;75154;-37
2023/03/27 02:32:31;;;;;;;3.40;2.20;;;;;;;5.14;69.66;98122.77;106915;1260;68867;-37
2023/03/27 02:35:17;;;;;;;3.10;2.20;;;;;;;5.18;69.38;98127.46;106993;1260;72942;-37
2023/03/27 02:38:16;;;;;;;3.00;1.90;;;;;;;5.23;69.60;98123.71;107230;1253;61729;-37
2023/03/27 02:41:15;;;;;;;4.70;2.20;;;;;;;5.23;69.82;98135.69;107425;1253;61157;-38
2023/03/27 02:44:22;;;;;;;3.60;2.70;;;;;;;5.22;69.71;98135.91;107437;1253;74735;-37
2023/03/27 02:47:01;;;;;;;4.20;2.20;;;;;;;5.20;69.77;98134.40;107519;1254;68695;-37
2023/03/27 02:49:45;;;;;;;3.40;1.90;;;;;;;5.18;69.68;98135.83;102255;1258;1003754;-37
2023/03/27 02:52:17;;;;;;;2.30;1.90;;;;;;;5.17;69.61;98143.17;107413;1253;60999;-37
2023/03/27 02:55:05;;;;;;;2.60;2.30;;;;;;;5.14;69.84;98143.10;107325;1253;61591;-37
2023/03/27 02:57:39;;;;;;;4.90;2.60;;;;;;;5.13;69.79;98147.23;107464;1254;75742;-37
2023/03/27 03:00:26;;;;;;;2.70;2.00;;;;;;;5.11;69.60;98148.26;107485;1253;69622;-37
2023/03/27 03:03:26;;;;;;;5.30;2.40;;;;;;;5.20;69.23;98154.20;107384;1253;74129;-37
2023/03/27 03:06:09;;;;;;;2.40;1.70;;;;;;;5.26;69.00;98152.94;107396;1258;61587;-38
2023/03/27 03:08:40;;;;;;;2.70;2.00;;;;;;;5.27;68.90;98150.67;107108;1254;60444;-37
2023/03/27 03:11:10;;;;;;;5.50;2.20;;;;;;;5.31;68.59;98148.14;107457;1253;74891;-37
2023/03/27 03:13:48;;;;;;;2.90;2.20;;;;;;;5.33;68.28;98142.95;107299;1253;69977;-37
2023/03/27 03:16:18;;;;;;;;;;;;;;;5.34;68.28;98144.35;107485;1254;73781;-37
2023/03/27 03:18:48;;;;;;;2.80;2.00;;;;;;;5.28;68.14;98141.98;107527;1254;60746;-37
2023/03/27 03:21:16;;;;;;;4.50;2.20;;;;;;;5.22;67.88;98141.20;107520;1254;61191;-38
2023/03/27 03:23:45;;;;;;;3.20;2.20;;;;;;;5.22;67.49;98144.02;107550;1253;73689;-37
2023/03/27 03:26:31;;;;;;;3.40;2.10;;;;;;;5.12;67.46;98141.68;107491;1253;69588;-37
2023/03/27 03:29:01;;;;;;;3.00;2.10;;;;;;;5.00;67.44;98144.33;107328;1254;73918;-37
2023/03/27 03:31:41;;;;;;;3.00;2.30;;;;;;;4.92;67.35;98142.77;107314;1253;60382;-37
2023/03/27 03:34:15;;;;;;;3.40;2.30;;;;;;;4.85;67.53;98143.69;107380;1253;61191;-37
2023/03/27 03:36:47;;;;;;;2.30;2.10;;;;;;;4.80;67.72;98144.08;107571;1254;74787;-37
2023/03/27 03:39:23;;;;;;;3.70;2.10;;;;;;;4.83;67.44;98146.74;107537;1254;69926;-37
2023/03/27 03:41:54;;;;;;;3.30;2.20;;;;;;;4.84;67.35;98146.68;107584;1256;73697;-37
2023/03/27 03:44:22;;;;;;;2.60;2.00;;;;;;;4.84;67.54;98153.89;107596;1253;61568;-37
2023/03/27 03:46:51;;;;;;;4.50;2.10;;;;;;;4.85;67.53;98156.98;107731;1254;61180;-37
2023/03/27 03:49:21;;;;;;;2.80;2.20;;;;;;;4.81;67.52;98152.74;107736;1253;75060;-37
2023/03/27 03:51:53;;;;;;;3.90;2.30;;;;;;;4.87;67.43;98165.85;107702;1254;68677;-37
2023/03/27 03:54:32;;;;;;;4.50;2.30;;;;;;;4.88;67.37;98164.48;107725;1254;73584;-37
2023/03/27 03:57:02;;;;;;;2.40;2.10;;;;;;;4.87;67.55;98167.23;107715;1256;60749;-37
2023/03/27 03:59:32;;;;;;;6.00;2.40;;;;;;;4.85;68.16;98173.00;107640;1252;61555;-37
2023/03/27 04:02:29;;;;;;;2.60;1.90;;;;;;;4.84;68.52;98172.08;107696;1254;74782;-37
2023/03/27 04:05:07;;;;;;;3.40;2.20;;;;;;;4.82;68.89;98174.27;107555;1254;68936;-37
2023/03/27 04:07:38;;;;;;;3.10;1.90;;;;;;;4.88;69.33;98175.06;107705;1254;71655;-37
2023/03/27 04:10:22;;;;;;;2.40;2.00;;;;;;;4.91;69.70;98172.91;107703;1254;60405;-37
2023/03/27 04:12:51;;;;;;;4.90;1.70;;;;;;;4.90;70.16;98168.29;107643;1253;61653;-37
2023/03/27 04:15:28;;;;;;;4.00;2.30;;;;;;;4.92;70.60;98172.10;107683;1252;74846;-37
2023/03/27 04:18:00;;;;;;;2.50;2.10;;;;;;;4.91;70.61;98173.60;107740;1254;70218;-37
2023/03/27 04:20:33;;;;;;;4.10;2.10;;;;;;;4.90;70.98;98174.20;107698;1254;73648;-38
2023/03/27 04:23:04;;;;;;;3.30;2.20;;;;;;;4.90;71.11;98172.36;107524;1254;60553;-37
2023/03/27 04:25:36;;;;;;;2.80;2.10;;;;;;;4.91;71.14;98175.45;107434;1254;61505;-38
2023/03/27 04:28:05;;;;;;;4.50;2.20;;;;;;;4.90;71.16;98169.52;107431;1253;74122;-37
2023/03/27 04:30:38;;;;;;;3.30;2.00;;;;;;;4.99;71.04;98164.64;107581;1253;69911;-37
2023/03/27 04:33:25;;;;;;;3.10;2.00;;;;;;;5.05;71.31;98159.72;107561;1253;73942;-37
2023/03/27 04:36:07;;;;;;;2.50;2.10;;;;;;;5.17;71.33;98173.26;107662;1256;61348;-38
2023/03/27 04:38:46;;;;;;;4.40;2.40;;;;;;;5.21;71.17;98169.27;107506;1252;61404;-37
2023/03/27 04:41:21;;;;;;;2.30;1.80;;;;;;;5.27;71.27;98168.70;107735;1252;74913;-37
2023/03/27 04:43:49;;;;;;;3.70;2.20;;;;;;;5.33;71.29;98166.13;107628;1257;70083;-38
2023/03/27 04:46:18;;;;;;;2.60;1.90;;;;;;;5.38;71.33;98167.86;107601;1254;73903;-37
2023/03/27 04:48:55;;;;;;;3.50;2.00;;;;;;;5.39;71.37;98172.70;107594;1253;60780;-38
2023/03/27 04:54:18;;;;;;;3.30;2.00;;;;;;;5.45;71.73;98172.52;104185;1291;601572;-37
2023/03/27 04:56:49;;;;;;;2.80;1.70;;;;;;;5.50;71.81;98178.75;106648;1267;61004;-37
2023/03/27 04:59:17;;;;;;;3.10;2.00;;;;;;;5.52;72.10;98181.86;106658;1267;61160;-37
2023/03/27 05:01:53;;;;;;;4.20;2.00;;;;;;;5.51;72.15;98185.08;106644;1266;73146;-37
2023/03/27 05:04:42;;;;;;;2.80;2.10;;;;;;;5.54;72.43;98184.07;106655;1267;67315;-37
2023/03/27 05:07:18;;;;;;;3.70;2.30;;;;;;;5.58;72.59;98187.29;106423;1264;245759;-37
2023/03/27 05:09:48;;;;;;;3.10;2.20;;;;;;;5.62;72.66;98186.14;106760;1264;62232;-37
2023/03/27 05:12:16;;;;;;;4.20;2.00;;;;;;;5.71;72.72;98192.61;106710;1263;61246;-37
2023/03/27 05:14:52;;;;;;;4.00;2.70;;;;;;;5.80;72.64;98194.39;106742;1268;73548;-37
2023/03/27 05:17:42;;;;;;;4.20;2.50;;;;;;;5.83;72.93;98193.08;106750;1264;70011;-37
2023/03/27 05:20:18;;;;;;;4.90;2.70;;;;;;;5.86;73.02;98191.66;106792;1264;72722;-37
2023/03/27 05:22:48;;;;;;;6.10;3.10;;;;;;;5.88;72.99;98193.80;106864;1263;61245;-37
2023/03/27 05:25:26;;;;;;;4.10;3.00;;;;;;;5.91;73.21;98188.85;106812;1264;61227;-37
2023/03/27 05:27:55;;;;;;;5.10;2.80;;;;;;;5.95;73.10;98187.92;106829;1267;74160;-37
2023/03/27 05:30:27;;;;;;;3.80;2.90;;;;;;;6.05;73.08;98183.52;106772;1267;69629;-37
2023/03/27 05:33:07;;;;;;;5.50;3.00;;;;;;;6.20;73.05;98178.30;106724;1264;73402;-37
2023/03/27 05:35:45;;;;;;;4.00;2.40;;;;;;;6.29;73.00;98180.77;106859;1264;61562;-37
2023/03/27 05:38:15;;;;;;;4.30;2.70;;;;;;;6.41;72.87;98185.97;106831;1265;60354;-37
2023/03/27 05:40:56;;;;;;;5.70;3.30;;;;;;;6.52;72.58;98184.30;106821;1264;74284;-37
2023/03/27 05:43:26;;;;;;;5.10;2.90;;;;;;;6.62;72.69;98188.14;106819;1264;70217;-37
2023/03/27 05:45:54;;;;;;;4.60;2.80;;;;;;;6.73;72.46;98188.46;106776;1264;71702;-39
2023/03/27 05:48:25;;;;;;;5.70;3.10;;;;;;;6.83;72.14;98192.45;106788;1264;62471;-38
2023/03/27 05:50:58;;;;;;;4.50;2.80;;;;;;;6.96;71.71;98193.27;106807;1267;60283;-39
2023/03/27 05:53:27;;;;;;;4.30;2.60;;;;;;;7.07;71.47;98195.88;106813;1264;74235;-38
2023/03/27 05:56:19;;;;;;;4.10;2.90;;;;;;;7.15;71.47;98192.84;106791;1264;69631;-38
2023/03/27 05:58:58;;;;;;;5.40;3.20;;;;;;;7.21;71.54;98191.91;106768;1264;73710;-38
2023/03/27 06:01:27;;;;;;;4.00;3.00;;;;;;;7.29;71.39;98194.57;106819;1266;61331;-38
2023/03/27 06:03:57;;;;;;;5.50;3.40;;;;;;;7.38;71.09;98193.67;106800;1264;61392;-38
2023/03/27 06:06:32;;;;;;;4.70;2.90;;;;;;;7.47;71.18;98199.02;106773;1264;73924;-38
2023/03/27 06:09:02;;;;;;;5.70;3.20;;;;;;;7.63;71.00;98200.13;106828;1263;68492;-38
2023/03/27 06:11:31;;;;;;;5.50;3.30;;;;;;;7.76;70.74;98200.21;106809;1264;73567;-38
2023/03/27 06:14:00;;;;;;;5.40;3.60;;;;;;;7.80;70.57;98200.27;106753;1264;61780;-38
2023/03/27 06:16:41;;;;;;;4.70;2.80;;;;;;;7.81;70.84;98201.50;106727;1263;61132;-37
2023/03/27 06:19:38;;;;;;;4.30;2.30;;;;;;;7.85;70.63;98194.14;106721;1264;74254;-37
2023/03/27 06:22:07;;;;;;;6.60;2.90;;;;;;;7.91;70.57;98194.98;106715;1263;69233;-37
2023/03/27 06:24:38;;;;;;;4.50;3.10;;;;;;;7.99;70.37;98195.77;106692;1264;72102;-37
2023/03/27 06:27:07;;;;;;;4.60;2.50;;;;;;;8.07;70.32;98193.84;106705;1263;62858;-37
2023/03/27 06:29:39;;;;;;;4.50;2.70;;;;;;;8.23;69.91;98193.99;106706;1267;61214;-37
2023/03/27 06:32:08;;;;;;;4.00;2.60;;;;;;;8.39;69.61;98188.84;106801;1263;74436;-37
2023/03/27 06:34:42;;;;;;;3.80;2.70;;;;;;;8.50;69.65;98193.71;106789;1264;69645;-37
2023/03/27 06:37:32;;;;;;;6.00;3.00;;;;;;;8.61;68.92;98196.36;106769;1267;72927;-37
2023/03/27 06:40:02;;;;;;;5.30;3.10;;;;;;;8.67;68.26;98200.95;106769;1264;61325;-37
2023/03/27 06:42:32;;;;;;;3.50;2.60;;;;;;;8.74;68.10;98205.02;107038;1260;61153;-37
2023/03/27 06:45:22;;;;;;;6.10;2.90;;;;;;;8.83;67.94;98205.15;106981;1260;74080;-37
2023/03/27 06:48:10;;;;;;;3.80;2.50;;;;;;;8.86;68.06;98195.21;107019;1260;68871;-37
2023/03/27 06:50:50;;;;;;;3.90;2.40;;;;;;;8.98;67.32;98196.61;106966;1265;73556;-37
2023/03/27 06:53:21;;;;;;;4.00;2.20;;;;;;;9.13;66.50;98202.58;106912;1260;61592;-38
2023/03/27 06:55:53;;;;;;;4.70;2.60;;;;;;;9.27;65.93;98204.20;106979;1261;61298;-37
2023/03/27 06:58:23;;;;;;;4.10;2.20;;;;;;;9.38;65.75;98204.88;107005;1260;74044;-37
2023/03/27 07:00:52;;;;;;;3.90;2.40;;;;;;;9.51;65.68;98203.77;107017;1260;69667;-36
2023/03/27 07:03:21;;;;;;;3.60;2.60;;;;;;;9.66;65.24;98203.60;106922;1260;73875;-37
2023/03/27 07:06:25;;;;;;;2.30;2.00;;;;;;;9.77;64.36;98202.94;106846;1265;60358;-37
2023/03/27 07:09:00;;;;;;;3.00;2.20;;;;;;;9.80;63.90;98199.95;106898;1260;60450;-37
2023/03/27 07:11:29;;;;;;;3.40;2.30;;;;;;;9.85;64.23;98202.36;106907;1260;74089;-37
2023/03/27 07:14:02;;;;;;;4.20;2.30;;;;;;;9.95;64.21;98206.88;106861;1260;70017;-38
2023/03/27 07:16:31;;;;;;;3.80;2.20;;;;;;;10.08;63.59;98202.42;107035;1260;73602;-37
2023/03/27 07:19:08;;;;;;;3.20;2.20;;;;;;;10.19;63.30;98206.17;106878;1261;61710;-38
2023/03/27 07:21:40;;;;;;;3.40;2.10;;;;;;;10.31;62.72;98208.13;106926;1260;61503;-37
2023/03/27 07:24:11;;;;;;;3.10;2.10;;;;;;;10.42;62.52;98211.70;106944;1260;74098;-38
2023/03/27 07:26:40;;;;;;;3.00;1.60;;;;;;;10.55;62.32;98211.55;107007;1260;69700;-37
2023/03/27 07:29:33;;;;;;;2.40;1.80;;;;;;;10.63;61.86;98213.04;106969;1260;72861;-37
2023/03/27 07:32:04;;;;;;;1.90;1.60;;;;;;;10.67;61.67;98211.71;106985;1260;61663;-37
2023/03/27 07:34:43;;;;;;;2.70;1.40;;;;;;;10.69;61.56;98207.30;107242;1257;61216;-38
2023/03/27 07:37:36;;;;;;;2.60;1.80;;;;;;;10.83;61.35;98211.55;107075;1256;74055;-37
2023/03/27 07:40:25;;;;;;;1.50;1.20;;;;;;;10.92;60.79;98213.95;107247;1256;68854;-37
2023/03/27 07:43:44;;;;;;;;;;;;;;;11.12;60.39;98216.31;106797;1264;73839;-37
2023/03/27 07:46:13;;;;;;;2.90;1.60;;;;;;;11.16;60.43;98212.20;106832;1264;60368;-37
2023/03/27 07:48:42;;;;;;;3.80;1.80;;;;;;;11.31;60.13;98211.17;106913;1256;61495;-37
2023/03/27 07:51:16;;;;;;;4.30;1.80;;;;;;;11.51;58.96;98210.79;107128;1255;74293;-37
2023/03/27 07:53:48;;;;;;;2.40;1.50;;;;;;;11.67;58.53;98206.78;107514;1252;69941;-37
2023/03/27 07:56:22;;;;;;;2.80;1.70;;;;;;;11.89;57.61;98197.88;107634;1253;72960;-37
2023/03/27 07:59:06;;;;;;;3.50;2.40;;;;;;;12.15;57.37;98199.27;107556;1253;61361;-37
2023/03/27 08:01:35;;;;;;;2.60;1.90;;;;;;;12.39;57.25;98198.65;107600;1252;61365;-37
2023/03/27 08:04:04;;;;;;;3.00;2.00;;;;;;;12.60;56.12;98196.46;107437;1253;74041;-37
2023/03/27 08:06:33;;;;;;;2.20;1.70;;;;;;;12.80;55.83;98195.06;107460;1253;67514;-37
2023/03/27 08:09:04;;;;;;;2.30;1.50;;;;;;;13.02;55.49;98200.23;107561;1253;74014;-37
2023/03/27 08:11:40;;;;;;;3.70;1.70;;;;;;;13.19;54.20;98196.98;107518;1253;61615;-37
2023/03/27 08:14:08;;;;;;;2.90;1.70;;;;;;;13.26;53.61;98192.94;107644;1252;61588;-38
2023/03/27 08:16:43;;;;;;;4.30;1.90;;;;;;;13.32;53.84;98195.91;107517;1253;74030;-38
2023/03/27 08:19:13;;;;;;;2.40;1.40;;;;;;;13.36;53.08;98192.75;107665;1253;69071;-38
2023/03/27 08:21:46;;;;;;;3.00;1.60;;;;;;;13.42;53.22;98192.91;107657;1253;72220;-37
2023/03/27 08:24:17;;;;;;;2.50;1.60;;;;;;;13.53;52.58;98189.91;107561;1253;60107;-37
2023/03/27 08:27:02;;;;;;;2.80;1.50;;;;;;;13.70;53.19;98181.83;107571;1253;59517;-37
2023/03/27 08:29:31;;;;;;;2.40;1.70;;;;;;;13.99;52.52;98185.90;107381;1253;74035;-37
2023/03/27 08:32:00;;;;;;;2.60;1.50;;;;;;;14.20;52.16;98181.55;107482;1253;69686;-37
2023/03/27 08:34:30;;;;;;;3.50;1.70;;;;;;;14.43;51.28;98183.02;107398;1253;73862;-37
2023/03/27 08:36:59;;;;;;;2.40;1.40;;;;;;;14.61;50.10;98185.08;107580;1253;61410;-37
2023/03/27 08:39:37;;;;;;;1.90;1.30;;;;;;;14.70;49.73;98176.98;107481;1253;61301;-37
2023/03/27 08:42:11;;;;;;;2.70;1.00;;;;;;;14.83;48.80;98172.09;107663;1252;74165;-37
2023/03/27 08:44:40;;;;;;;2.60;1.20;;;;;;;15.00;47.86;98171.92;107516;1253;69885;-37
2023/03/27 08:47:25;;;;;;;2.60;1.20;;;;;;;15.19;47.78;98170.65;107532;1253;73636;-37
2023/03/27 08:49:59;;;;;;;2.80;1.20;;;;;;;15.35;46.56;98170.83;107611;1256;61281;-37
2023/03/27 08:52:36;;;;;;;2.30;1.20;;;;;;;15.42;46.69;98168.98;107503;1253;61577;-37
2023/03/27 08:55:11;;;;;;;2.30;1.20;;;;;;;15.52;45.88;98166.52;107522;1253;74103;-37
2023/03/27 08:57:49;;;;;;;1.90;1.00;;;;;;;15.68;45.50;98167.76;107468;1257;68535;-37
2023/03/27 09:00:24;;;;;;;1.70;1.30;;;;;;;15.79;45.78;98170.11;107501;1255;73531;-37
2023/03/27 09:03:21;;;;;;;3.50;1.40;;;;;;;15.89;45.01;98159.20;107497;1253;61277;-37
2023/03/27 09:05:56;;;;;;;2.10;1.30;;;;;;;16.04;44.46;98159.71;107617;1252;60412;-37
2023/03/27 09:08:31;;;;;;;2.90;1.40;;;;;;;16.17;44.09;98155.83;107465;1253;71849;-37
2023/03/27 09:11:08;;;;;;;1.80;1.30;;;;;;;16.31;43.72;98155.98;107614;1253;69711;-37
2023/03/27 09:13:46;;;;;;;1.80;1.50;;;;;;;16.44;43.34;98149.95;107487;1253;73645;-37
2023/03/27 09:16:17;;;;;;;2.30;1.50;;;;;;;16.67;42.68;98150.92;107483;1253;61406;-37
2023/03/27 09:18:49;;;;;;;2.10;1.50;;;;;;;16.80;41.95;98145.41;107485;1253;61418;-37
2023/03/27 09:21:36;;;;;;;2.20;1.40;;;;;;;16.96;41.73;98149.55;107470;1253;75051;-37
2023/03/27 09:24:26;;;;;;;1.40;1.20;;;;;;;17.19;41.22;98145.34;107520;1253;69719;-37
2023/03/27 09:27:17;;;;;;;2.90;1.80;;;;;;;17.40;41.40;98138.10;107487;1253;72801;-37
2023/03/27 09:30:14;;;;;;;3.00;1.80;;;;;;;17.59;40.41;98138.14;107564;1256;61911;-37
2023/03/27 09:33:02;;;;;;;2.60;2.00;;;;;;;17.64;40.52;98130.63;107592;1253;61208;-37
2023/03/27 09:35:32;;;;;;;2.50;1.60;;;;;;;17.59;40.65;98133.58;107615;1252;74902;-38
2023/03/27 09:38:02;;;;;;;2.60;1.70;;;;;;;17.64;40.83;98125.78;107578;1253;69079;-37
2023/03/27 09:40:47;;;;;;;2.70;1.90;;;;;;;17.62;40.22;98121.77;107483;1253;72671;-37
2023/03/27 09:43:18;;;;;;;2.80;1.80;;;;;;;17.35;40.41;98128.06;107669;1253;61268;-37
2023/03/27 09:45:49;;;;;;;2.10;1.60;;;;;;;17.05;40.74;98124.73;107550;1253;60286;-37
2023/03/27 09:48:35;;;;;;;2.20;1.60;;;;;;;16.95;40.93;98119.77;107231;1258;74047;-37
2023/03/27 09:51:38;;;;;;;2.30;1.60;;;;;;;16.90;41.21;98126.16;107479;1253;68685;-37
2023/03/27 09:54:13;;;;;;;2.40;1.50;;;;;;;16.78;39.97;98118.20;107603;1252;73690;-37
2023/03/27 09:57:00;;;;;;;2.20;1.60;;;;;;;16.67;40.54;98116.90;107650;1253;61396;-37
2023/03/27 09:59:37;;;;;;;2.30;1.50;;;;;;;16.49;40.27;98123.34;107570;1257;59982;-37
2023/03/27 10:02:36;;;;;;;3.00;1.50;;;;;;;16.27;40.23;98123.73;107583;1253;74819;-37
2023/03/27 10:05:14;;;;;;;2.30;1.40;;;;;;;16.27;41.41;98124.84;107402;1253;69959;-38
2023/03/27 10:07:44;;;;;;;2.30;1.50;;;;;;;16.45;41.28;98124.95;107482;1253;73570;-38
2023/03/27 10:10:44;;;;;;;2.10;1.40;;;;;;;16.73;40.59;98117.67;107515;1253;60415;-38
2023/03/27 10:13:43;;;;;;;2.80;1.30;;;;;;;17.04;40.09;98118.42;107618;1252;60407;-38
2023/03/27 10:16:16;;;;;;;1.80;1.50;;;;;;;17.31;39.27;98122.71;107476;1253;74932;-38
2023/03/27 10:18:55;;;;;;;2.70;1.50;;;;;;;17.48;38.59;98128.31;107490;1253;69614;-38
2023/03/27 10:21:38;;;;;;;2.30;1.40;;;;;;;17.43;37.73;98127.08;107472;1253;73672;-38
2023/03/27 10:24:16;;;;;;;1.60;1.20;;;;;;;17.33;38.58;98118.88;107502;1253;60435;-38
2023/03/27 10:27:04;;;;;;;4.50;1.60;;;;;;;17.50;38.72;98112.30;107583;1253;61482;-38
2023/03/27 10:29:34;;;;;;;2.80;1.40;;;;;;;17.83;39.02;98112.21;107375;1252;75249;-38
2023/03/27 10:32:04;;;;;;;1.80;1.50;;;;;;;18.26;37.44;98111.91;107606;1257;69769;-38
2023/03/27 10:34:51;;;;;;;2.90;1.60;;;;;;;18.58;36.25;98115.56;107604;1253;73620;-38
2023/03/27 10:37:39;;;;;;;2.30;1.20;;;;;;;18.77;36.33;98112.27;107475;1253;60575;-38
2023/03/27 10:40:55;;;;;;;2.70;1.20;;;;;;;18.71;35.59;98116.09;107461;1253;61348;-38
2023/03/27 10:43:39;;;;;;;2.30;1.40;;;;;;;18.44;35.57;98108.46;107473;1253;74554;-38
2023/03/27 10:46:10;;;;;;;2.90;1.50;;;;;;;18.20;36.34;98100.41;107500;1253;70237;-38
2023/03/27 10:49:01;;;;;;;2.80;1.40;;;;;;;18.07;37.03;98103.58;107542;1253;71701;-38
2023/03/27 10:51:39;;;;;;;1.70;1.30;;;;;;;18.02;37.16;98104.10;107470;1253;61287;-38
2023/03/27 10:54:26;;;;;;;;;;;;;;;18.04;35.71;98102.48;107401;1253;61324;-36
2023/03/27 10:57:07;;;;;;;3.70;1.20;;;;;;;18.05;36.27;98092.66;107502;1253;75054;-38
2023/03/27 10:59:43;;;;;;;2.70;1.30;;;;;;;18.07;35.97;98096.91;107497;1253;70210;-38
2023/03/27 11:02:46;;;;;;;1.20;1.10;;;;;;;17.92;36.21;98090.39;107498;1255;72615;-38
2023/03/27 11:05:19;;;;;;;2.10;1.40;;;;;;;17.63;36.83;98095.35;107487;1253;60399;-38
2023/03/27 11:08:24;;;;;;;2.10;1.20;;;;;;;17.35;36.92;98090.58;107518;1253;61212;-38
2023/03/27 11:10:54;;;;;;;1.80;1.20;;;;;;;17.09;37.36;98086.39;107525;1253;74785;-38
2023/03/27 11:13:45;;;;;;;3.60;1.40;;;;;;;16.87;37.89;98084.48;107464;1257;69646;-38
2023/03/27 11:16:39;;;;;;;2.10;1.20;;;;;;;16.80;38.31;98085.37;107494;1253;72295;-37
2023/03/27 11:19:34;;;;;;;2.10;1.10;;;;;;;17.06;37.51;98081.22;107497;1253;61347;-37
2023/03/27 11:22:39;;;;;;;1.90;1.30;;;;;;;17.63;37.55;98081.30;107305;1253;61533;-37
2023/03/27 11:25:22;;;;;;;3.00;1.30;;;;;;;18.20;36.56;98079.31;107456;1253;74740;-37
2023/03/27 11:28:00;;;;;;;1.30;0.90;;;;;;;18.77;35.33;98076.58;107471;1253;70047;-37
2023/03/27 11:30:45;;;;;;;1.90;1.20;;;;;;;19.18;34.22;98074.49;107388;1253;73657;-37
2023/03/27 11:33:31;;;;;;;1.90;1.10;;;;;;;19.43;33.77;98072.96;107446;1253;61619;-37
2023/03/27 11:36:05;;;;;;;1.90;1.10;;;;;;;19.42;33.43;98074.38;107442;1253;61558;-37
2023/03/27 11:39:15;;;;;;;2.60;1.30;;;;;;;19.36;33.03;98075.27;107429;1253;74790;-37
2023/03/27 11:41:50;;;;;;;2.50;1.40;;;;;;;19.27;32.37;98070.10;107536;1253;69635;-38
2023/03/27 11:44:20;;;;;;;2.80;1.30;;;;;;;19.27;33.24;98066.07;107476;1259;74054;-37
2023/03/27 11:47:42;;;;;;;4.40;1.20;;;;;;;19.42;32.36;98073.08;107517;1253;60452;-38
2023/03/27 11:50:27;;;;;;;3.30;1.10;;;;;;;19.41;32.53;98062.64;106996;1253;60114;-37
2023/03/27 11:53:15;;;;;;;2.90;1.50;;;;;;;19.49;32.60;98066.13;107537;1253;74986;-37
2023/03/27 11:56:14;;;;;;;3.90;1.40;;;;;;;19.71;31.89;98057.79;107287;1253;70028;-38
2023/03/27 11:59:18;;;;;;;4.20;1.50;;;;;;;19.95;31.42;98055.98;107515;1253;71618;-37
2023/03/27 12:02:15;;;;;;;2.80;1.40;;;;;;;20.38;30.50;98053.99;107514;1253;61247;-37
2023/03/27 12:04:56;;;;;;;2.70;1.50;;;;;;;20.59;30.19;98047.23;107492;1253;61561;-37
2023/03/27 12:07:57;;;;;;;2.80;1.40;;;;;;;20.62;29.60;98040.02;107562;1253;75042;-37
2023/03/27 12:10:32;;;;;;;2.20;1.10;;;;;;;20.61;30.12;98031.55;107552;1253;68833;-38
2023/03/27 12:13:17;;;;;;;2.30;1.30;;;;;;;20.80;30.13;98034.44;107341;1253;72530;-38
2023/03/27 12:16:07;;;;;;;4.60;1.30;;;;;;;20.76;30.05;98031.45;107377;1253;61295;-38
2023/03/27 12:19:14;;;;;;;3.80;1.40;;;;;;;20.53;29.31;98032.55;107498;1253;61401;-37
2023/03/27 12:22:19;;;;;;;3.50;1.10;;;;;;;19.93;29.67;98035.77;107486;1256;75059;-38
2023/03/27 12:25:03;;;;;;;2.20;1.20;;;;;;;19.44;30.48;98039.52;107446;1253;68914;-38
2023/03/27 12:28:02;;;;;;;3.20;1.40;;;;;;;18.98;31.41;98036.27;107468;1253;74300;-38